Weather at Samui Airport

Public forecast

Using degrees Celsius for public forecast. Weather courtesy of forecast.io.

Current aviation weather report (METAR) for Samui Airport

Report is more than 6 hours old.

2022/11/14 15:00 (retrieved 2 years ago)

VTSM 141500Z 14006KT 9999 FEW012 SCT018 28/25 Q1011 NOSIG

Aviation forecast (TAF) for Samui Airport

Forecast is more than 12 hours old.

2023/02/22 18:00 (retrieved 1 year ago)

TAF VTSM 221700Z 2218/2318 15008KT 9999 FEW020